createdAt,value
2018-12-20T00:00:10.778Z,89.50
2018-12-20T00:02:38.782Z,89.60
2018-12-20T00:05:06.752Z,89.60
2018-12-20T00:07:34.713Z,89.80
2018-12-20T00:10:02.564Z,90.10
2018-12-20T00:12:30.351Z,90.10
2018-12-20T00:14:58.130Z,90.10
2018-12-20T00:17:27.783Z,90.10
2018-12-20T00:19:55.614Z,90.20
2018-12-20T00:22:24.155Z,90.20
2018-12-20T00:24:51.955Z,90.30
2018-12-20T00:27:19.812Z,90.40
2018-12-20T00:29:47.786Z,90.30
2018-12-20T00:32:15.957Z,90.60
2018-12-20T00:34:43.900Z,90.50
2018-12-20T00:37:11.678Z,90.70
2018-12-20T00:39:40.318Z,90.80
2018-12-20T00:42:08.688Z,90.70
2018-12-20T00:44:37.526Z,90.80
2018-12-20T00:47:05.643Z,90.70
2018-12-20T00:49:33.535Z,90.80
2018-12-20T00:52:01.410Z,91.10
2018-12-20T00:54:29.320Z,91.30
2018-12-20T00:56:57.167Z,91.50
2018-12-20T00:59:25.105Z,91.30
2018-12-20T01:01:53.720Z,91.40
2018-12-20T01:04:21.392Z,91.50
2018-12-20T01:06:49.353Z,91.60
2018-12-20T01:09:17.111Z,91.60
2018-12-20T01:11:45.101Z,91.80
2018-12-20T01:14:12.874Z,91.90
2018-12-20T01:16:40.632Z,92.40
2018-12-20T01:19:08.660Z,92.50
2018-12-20T01:21:36.633Z,92.20
2018-12-20T01:24:05.302Z,92.20
2018-12-20T01:26:33.820Z,92.30
2018-12-20T01:29:02.226Z,92.30
2018-12-20T01:31:29.948Z,92.30
2018-12-20T01:33:57.599Z,92.30
2018-12-20T01:36:25.428Z,92.30
2018-12-20T01:38:53.181Z,92.30
2018-12-20T01:41:20.855Z,92.40
2018-12-20T01:43:48.650Z,92.30
2018-12-20T01:46:16.822Z,92.40
2018-12-20T01:48:44.530Z,92.50
2018-12-20T01:51:12.398Z,92.60
2018-12-20T01:53:40.228Z,92.90
2018-12-20T01:56:08.029Z,93.10
2018-12-20T01:58:35.911Z,93.30
2018-12-20T02:01:03.689Z,93.30
2018-12-20T02:03:31.564Z,93.30
2018-12-20T02:05:59.314Z,93.10
2018-12-20T02:08:27.129Z,93.00
2018-12-20T02:10:55.065Z,93.20
2018-12-20T02:13:22.973Z,93.20
2018-12-20T02:15:50.799Z,93.20
2018-12-20T02:18:18.823Z,93.20
2018-12-20T02:20:46.964Z,93.50
2018-12-20T02:23:14.860Z,93.70
2018-12-20T02:25:42.754Z,94.10
2018-12-20T02:28:10.830Z,94.20
2018-12-20T02:30:38.873Z,94.20
2018-12-20T02:33:06.693Z,94.20
2018-12-20T02:35:34.677Z,94.20
2018-12-20T02:38:02.473Z,94.20
2018-12-20T02:40:30.302Z,94.20
2018-12-20T02:42:58.078Z,94.20
2018-12-20T02:45:26.174Z,94.20
2018-12-20T02:47:53.920Z,94.20
2018-12-20T02:50:21.680Z,94.30
2018-12-20T02:52:49.712Z,94.30
2018-12-20T02:55:17.451Z,94.30
2018-12-20T02:57:45.372Z,94.30
2018-12-20T03:00:13.252Z,94.00
2018-12-20T03:02:41.136Z,93.70
2018-12-20T03:05:08.984Z,93.50
2018-12-20T03:07:36.847Z,93.20
2018-12-20T03:10:05.144Z,92.80
2018-12-20T03:12:33.258Z,92.50
2018-12-20T03:15:01.337Z,92.40
2018-12-20T03:17:29.436Z,92.40
2018-12-20T03:19:57.495Z,92.20
2018-12-20T03:22:25.361Z,92.20
2018-12-20T03:24:53.117Z,92.00
2018-12-20T03:27:21.083Z,91.70
2018-12-20T03:29:49.091Z,91.80
2018-12-20T03:32:16.963Z,91.50
2018-12-20T03:34:44.830Z,91.50
2018-12-20T03:37:16.994Z,91.50
2018-12-20T03:39:45.134Z,91.40
2018-12-20T03:42:13.122Z,91.40
2018-12-20T03:44:41.836Z,91.60
2018-12-20T03:47:09.541Z,91.70
2018-12-20T03:49:37.652Z,91.70
2018-12-20T03:52:05.716Z,91.70
2018-12-20T03:54:33.574Z,91.70
2018-12-20T03:57:01.351Z,91.80
2018-12-20T03:59:30.146Z,91.70
2018-12-20T04:01:58.225Z,91.70
2018-12-20T04:04:26.126Z,91.70
2018-12-20T04:06:53.963Z,91.80
2018-12-20T04:09:21.924Z,91.90
2018-12-20T04:11:49.676Z,91.80
2018-12-20T04:14:17.479Z,91.80
2018-12-20T04:16:45.362Z,91.80
2018-12-20T04:19:13.349Z,91.80
2018-12-20T04:21:41.364Z,91.70
2018-12-20T04:24:09.237Z,92.00
2018-12-20T04:26:36.912Z,91.60
2018-12-20T04:29:04.877Z,91.50
2018-12-20T04:31:32.843Z,91.50
2018-12-20T04:34:01.456Z,91.50
2018-12-20T04:36:29.294Z,91.50
2018-12-20T04:38:57.317Z,91.50
2018-12-20T04:41:25.331Z,91.50
2018-12-20T04:43:53.110Z,91.60
2018-12-20T04:46:20.986Z,91.60
2018-12-20T04:48:48.831Z,91.50
2018-12-20T04:51:17.886Z,91.50
2018-12-20T04:53:45.597Z,91.50
2018-12-20T04:56:13.359Z,91.40
2018-12-20T04:58:41.204Z,91.30
2018-12-20T05:01:09.751Z,91.30
2018-12-20T05:03:37.463Z,91.20
2018-12-20T05:06:05.203Z,91.20
2018-12-20T05:08:32.971Z,91.10
2018-12-20T05:11:00.797Z,91.00
2018-12-20T05:13:28.605Z,91.00
2018-12-20T05:15:56.904Z,91.00
2018-12-20T05:18:25.054Z,91.10
2018-12-20T05:20:52.975Z,91.10
2018-12-20T05:23:21.175Z,91.20
2018-12-20T05:25:49.218Z,91.20
2018-12-20T05:28:17.272Z,91.10
2018-12-20T05:30:45.455Z,91.20
2018-12-20T05:33:13.136Z,91.20
2018-12-20T05:35:40.878Z,91.20
2018-12-20T05:38:08.773Z,91.10
2018-12-20T05:40:36.447Z,90.90
2018-12-20T05:43:04.418Z,90.90
2018-12-20T05:45:32.158Z,90.90
2018-12-20T05:48:00.250Z,90.70
2018-12-20T05:50:28.091Z,90.70
2018-12-20T05:52:55.782Z,90.90
2018-12-20T05:55:23.565Z,90.90
2018-12-20T05:57:51.904Z,90.90
2018-12-20T06:00:20.974Z,90.90
2018-12-20T06:02:48.787Z,90.90
2018-12-20T06:05:16.700Z,90.90
2018-12-20T06:07:44.801Z,90.90
2018-12-20T06:10:12.836Z,90.90
2018-12-20T06:12:40.576Z,90.90
2018-12-20T06:15:08.331Z,90.90
2018-12-20T06:17:36.112Z,90.80
2018-12-20T06:20:04.711Z,90.50
2018-12-20T06:22:32.497Z,90.30
2018-12-20T06:25:00.296Z,90.00
2018-12-20T06:27:28.087Z,89.40
2018-12-20T06:29:55.975Z,88.30
2018-12-20T06:32:23.733Z,87.90
2018-12-20T06:34:51.741Z,87.10
2018-12-20T06:37:19.513Z,87.30
2018-12-20T06:39:47.335Z,87.40
2018-12-20T06:42:15.690Z,88.00
2018-12-20T06:44:43.450Z,89.30
2018-12-20T06:47:11.140Z,90.20
2018-12-20T06:49:38.961Z,90.60
2018-12-20T06:52:07.238Z,90.80
2018-12-20T06:54:35.054Z,90.70
2018-12-20T06:57:02.865Z,90.80
2018-12-20T06:59:30.652Z,90.80
2018-12-20T07:01:58.887Z,91.00
2018-12-20T07:04:26.623Z,91.00
2018-12-20T07:06:54.407Z,91.20
2018-12-20T07:09:22.459Z,91.50
2018-12-20T07:11:50.182Z,91.60
2018-12-20T07:14:18.170Z,91.60
2018-12-20T07:16:47.120Z,91.80
2018-12-20T07:19:14.925Z,91.90
2018-12-20T07:21:42.816Z,92.00
2018-12-20T07:24:11.040Z,92.20
2018-12-20T07:26:38.895Z,92.30
2018-12-20T07:29:06.743Z,92.40
2018-12-20T07:31:34.413Z,92.50
2018-12-20T07:34:02.271Z,92.50
2018-12-20T07:36:30.441Z,92.50
2018-12-20T07:38:58.452Z,92.60
2018-12-20T07:41:26.209Z,92.70
2018-12-20T07:43:54.159Z,92.90
2018-12-20T07:46:21.902Z,92.90
2018-12-20T07:48:49.642Z,93.00
2018-12-20T07:51:17.477Z,93.20
2018-12-20T07:53:45.278Z,93.30
2018-12-20T07:56:13.687Z,93.40
2018-12-20T07:58:41.483Z,93.50
2018-12-20T08:01:09.386Z,93.40
2018-12-20T08:03:37.075Z,93.40
2018-12-20T08:06:05.138Z,93.40
2018-12-20T08:08:32.984Z,93.50
2018-12-20T08:11:00.805Z,93.50
2018-12-20T08:13:28.604Z,93.60
2018-12-20T08:15:56.350Z,93.60
2018-12-20T08:18:24.200Z,93.60
2018-12-20T08:20:51.951Z,93.80
2018-12-20T08:23:19.694Z,93.40
2018-12-20T08:25:49.490Z,93.30
2018-12-20T08:28:17.266Z,93.50
2018-12-20T08:30:45.424Z,93.10
2018-12-20T08:33:13.191Z,93.00
2018-12-20T08:35:40.909Z,93.00
2018-12-20T08:38:08.811Z,93.00
2018-12-20T08:40:36.576Z,92.50
2018-12-20T08:43:04.331Z,92.10
2018-12-20T08:45:32.150Z,91.90
2018-12-20T08:47:59.986Z,91.70
2018-12-20T08:50:27.698Z,91.50
2018-12-20T08:52:56.136Z,91.00
2018-12-20T08:55:23.877Z,91.10
2018-12-20T08:57:51.592Z,90.60
2018-12-20T09:00:19.511Z,90.40
2018-12-20T09:02:47.262Z,90.10
2018-12-20T09:05:15.045Z,90.10
2018-12-20T09:07:42.792Z,89.60
2018-12-20T09:10:10.605Z,89.10
2018-12-20T09:12:38.554Z,88.60
2018-12-20T09:15:07.155Z,88.00
2018-12-20T09:17:34.944Z,87.70
2018-12-20T09:20:02.753Z,87.50
2018-12-20T09:22:30.499Z,87.30
2018-12-20T09:24:58.183Z,87.10
2018-12-20T09:27:26.290Z,85.80
2018-12-20T09:29:54.018Z,85.90
2018-12-20T09:32:21.922Z,84.80
2018-12-20T09:34:49.681Z,84.50
2018-12-20T09:37:19.413Z,83.20
2018-12-20T09:39:47.407Z,82.10
2018-12-20T09:42:15.329Z,80.90
2018-12-20T09:44:43.222Z,79.40
2018-12-20T09:47:12.897Z,80.00
2018-12-20T09:49:40.774Z,79.40
2018-12-20T09:52:08.585Z,79.40
2018-12-20T09:54:36.321Z,78.50
2018-12-20T09:57:04.204Z,77.90
2018-12-20T09:59:32.000Z,77.40
2018-12-20T10:01:59.696Z,77.80
2018-12-20T10:04:27.842Z,78.20
2018-12-20T10:06:55.577Z,76.40
2018-12-20T10:09:23.471Z,75.90
2018-12-20T10:11:51.190Z,74.90
2018-12-20T10:14:19.006Z,75.00
2018-12-20T10:16:46.784Z,76.10
2018-12-20T10:19:14.654Z,74.90
2018-12-20T10:21:42.420Z,75.00
2018-12-20T10:24:10.150Z,74.90
2018-12-20T10:26:37.922Z,75.60
2018-12-20T10:29:05.694Z,74.90
2018-12-20T10:31:33.491Z,74.10
2018-12-20T10:34:01.368Z,74.90
2018-12-20T10:36:29.633Z,73.30
2018-12-20T10:39:00.807Z,73.30
2018-12-20T10:41:28.871Z,71.70
2018-12-20T10:43:56.581Z,70.80
2018-12-20T10:46:24.507Z,70.40
2018-12-20T10:48:52.530Z,69.70
2018-12-20T10:51:21.198Z,68.70
2018-12-20T10:53:49.860Z,69.40
2018-12-20T10:56:17.754Z,69.00
2018-12-20T10:58:45.438Z,68.20
2018-12-20T11:01:15.196Z,67.70
2018-12-20T11:03:44.865Z,64.00
2018-12-20T11:06:14.546Z,65.60
2018-12-20T11:08:44.149Z,67.10
2018-12-20T11:11:14.545Z,66.60
2018-12-20T11:13:42.303Z,65.50
2018-12-20T11:16:13.752Z,66.10
2018-12-20T11:18:42.304Z,65.80
2018-12-20T11:21:11.928Z,66.00
2018-12-20T11:23:39.691Z,65.80
2018-12-20T11:26:09.119Z,64.50
2018-12-20T11:28:37.490Z,63.30
2018-12-20T11:31:11.025Z,62.70
2018-12-20T11:33:39.171Z,63.90
2018-12-20T11:38:40.131Z,64.70
2018-12-20T11:41:08.576Z,66.50
2018-12-20T11:43:36.513Z,66.20
2018-12-20T11:46:04.336Z,67.30
2018-12-20T11:48:32.686Z,68.20
2018-12-20T11:51:00.370Z,66.90
2018-12-20T11:53:28.169Z,67.80
2018-12-20T11:55:56.124Z,68.80
2018-12-20T11:58:23.920Z,68.80
2018-12-20T12:00:51.702Z,69.20
2018-12-20T12:03:19.496Z,68.80
2018-12-20T12:05:47.259Z,68.50
2018-12-20T12:08:15.071Z,67.50
2018-12-20T12:10:42.950Z,67.80
2018-12-20T12:13:11.754Z,68.60
2018-12-20T12:15:39.651Z,68.60
2018-12-20T12:18:07.536Z,68.90
2018-12-20T12:20:35.778Z,69.70
2018-12-20T12:23:03.561Z,72.00
2018-12-20T12:25:31.437Z,74.10
2018-12-20T12:27:59.214Z,74.00
2018-12-20T12:30:27.175Z,74.40
2018-12-20T12:32:55.339Z,75.10
2018-12-20T12:35:23.104Z,74.20
2018-12-20T12:37:50.941Z,73.60
2018-12-20T12:40:18.745Z,73.20
2018-12-20T12:42:46.461Z,71.90
2018-12-20T12:45:14.250Z,71.40
2018-12-20T12:47:43.987Z,70.50
2018-12-20T12:50:12.003Z,70.40
2018-12-20T12:52:39.886Z,68.40
2018-12-20T12:55:07.895Z,67.60
2018-12-20T12:57:36.540Z,66.70
2018-12-20T13:00:08.035Z,67.30
2018-12-20T13:02:35.783Z,65.90
2018-12-20T13:05:09.241Z,67.70
2018-12-20T13:07:38.158Z,63.80
2018-12-20T13:10:11.221Z,64.10
2018-12-20T13:12:40.618Z,65.90
2018-12-20T13:15:10.452Z,63.60
2018-12-20T13:17:38.202Z,64.30
2018-12-20T13:20:08.824Z,64.20
2018-12-20T13:22:37.207Z,65.20
2018-12-20T13:25:05.962Z,64.00
2018-12-20T13:27:33.690Z,63.10
2018-12-20T13:30:01.389Z,64.70
2018-12-20T13:32:29.547Z,65.20
2018-12-20T13:34:57.234Z,64.70
2018-12-20T13:37:26.793Z,63.10
2018-12-20T13:39:54.541Z,65.50
2018-12-20T13:42:22.357Z,64.50
2018-12-20T13:44:50.317Z,63.60
2018-12-20T13:47:18.908Z,65.40
2018-12-20T13:49:46.767Z,64.40
2018-12-20T13:52:14.523Z,64.70
2018-12-20T13:54:42.245Z,65.00
2018-12-20T13:57:09.948Z,66.20
2018-12-20T13:59:38.209Z,65.40
2018-12-20T14:02:06.118Z,64.40
2018-12-20T14:04:33.863Z,65.80
2018-12-20T14:07:01.566Z,66.70
2018-12-20T14:09:29.296Z,65.70
2018-12-20T14:11:57.105Z,66.60
2018-12-20T14:14:24.905Z,65.60
2018-12-20T14:16:52.905Z,67.20
2018-12-20T14:19:20.708Z,68.40
2018-12-20T14:21:48.482Z,69.00
2018-12-20T14:24:16.402Z,69.50
2018-12-20T14:26:44.138Z,69.80
2018-12-20T14:29:11.920Z,70.20
2018-12-20T14:31:40.299Z,70.60
2018-12-20T14:34:08.139Z,70.10
2018-12-20T14:36:36.024Z,71.20
2018-12-20T14:39:05.543Z,71.70
2018-12-20T14:41:33.259Z,71.30
2018-12-20T14:44:01.079Z,71.80
2018-12-20T14:46:28.769Z,73.10
2018-12-20T14:48:57.128Z,73.30
2018-12-20T14:51:24.807Z,73.20
2018-12-20T14:53:54.367Z,74.70
2018-12-20T14:56:22.170Z,74.60
2018-12-20T14:58:50.008Z,74.70
2018-12-20T15:01:17.825Z,74.20
2018-12-20T15:03:45.522Z,73.50
2018-12-20T15:06:13.232Z,73.30
2018-12-20T15:08:40.973Z,72.90
2018-12-20T15:11:08.714Z,72.20
2018-12-20T15:13:36.458Z,72.80
2018-12-20T15:16:04.556Z,73.00
2018-12-20T15:18:32.272Z,73.40
2018-12-20T15:21:00.018Z,75.40
2018-12-20T15:23:28.320Z,74.30
2018-12-20T15:25:56.132Z,74.70
2018-12-20T15:28:23.854Z,75.30
2018-12-20T15:30:51.830Z,75.70
2018-12-20T15:33:19.655Z,76.20
2018-12-20T15:35:47.597Z,77.10
2018-12-20T15:38:15.585Z,79.10
2018-12-20T15:40:43.345Z,81.40
2018-12-20T15:43:11.071Z,83.70
2018-12-20T15:45:38.802Z,85.20
2018-12-20T15:48:06.495Z,86.80
2018-12-20T15:50:34.359Z,88.10
2018-12-20T15:53:02.048Z,89.10
2018-12-20T15:55:29.834Z,90.20
2018-12-20T15:57:57.666Z,90.80
2018-12-20T16:00:25.437Z,90.70
2018-12-20T16:02:53.240Z,90.90
2018-12-20T16:05:21.162Z,91.30
2018-12-20T16:07:49.014Z,91.00
2018-12-20T16:10:16.783Z,90.90
2018-12-20T16:12:44.570Z,91.10
2018-12-20T16:15:12.313Z,90.70
2018-12-20T16:17:40.131Z,90.60
2018-12-20T16:20:09.592Z,90.70
2018-12-20T16:22:37.441Z,91.00
2018-12-20T16:25:06.511Z,91.00
2018-12-20T16:27:34.249Z,91.00
2018-12-20T16:30:02.083Z,91.00
2018-12-20T16:32:30.147Z,90.90
2018-12-20T16:34:57.991Z,90.60
2018-12-20T16:37:25.631Z,90.20
2018-12-20T16:39:53.438Z,90.00
2018-12-20T16:42:22.322Z,88.70
2018-12-20T16:44:50.096Z,88.60
2018-12-20T16:47:17.777Z,88.60
2018-12-20T16:49:46.587Z,89.10
2018-12-20T16:52:14.336Z,90.00
2018-12-20T16:54:42.190Z,90.40
2018-12-20T16:57:09.891Z,90.90
2018-12-20T16:59:37.671Z,90.90
2018-12-20T17:02:05.634Z,90.90
2018-12-20T17:04:34.264Z,91.00
2018-12-20T17:07:05.887Z,91.00
2018-12-20T17:09:34.066Z,91.10
2018-12-20T17:12:03.885Z,91.40
2018-12-20T17:14:34.207Z,91.90
2018-12-20T17:17:02.307Z,91.90
2018-12-20T17:19:38.916Z,92.50
2018-12-20T17:22:06.799Z,92.70
2018-12-20T17:24:34.642Z,92.90
2018-12-20T17:27:02.519Z,92.80
2018-12-20T17:29:33.265Z,93.20
2018-12-20T17:32:01.133Z,92.70
2018-12-20T17:34:30.811Z,92.60
2018-12-20T17:36:58.906Z,92.60
2018-12-20T17:39:29.592Z,92.50
2018-12-20T17:41:59.169Z,92.50
2018-12-20T17:44:27.564Z,92.40
2018-12-20T17:46:55.850Z,92.40
2018-12-20T17:49:30.435Z,92.40
2018-12-20T17:51:54.356Z,92.00
2018-12-20T17:54:22.258Z,92.10
2018-12-20T17:56:50.130Z,92.20
2018-12-20T17:59:17.923Z,92.40
2018-12-20T18:01:46.880Z,92.20
2018-12-20T18:04:15.454Z,92.20
2018-12-20T18:06:43.250Z,92.10
2018-12-20T18:09:11.115Z,92.10
2018-12-20T18:11:39.552Z,92.20
2018-12-20T18:14:07.551Z,92.30
2018-12-20T18:16:35.376Z,92.10
2018-12-20T18:19:03.286Z,91.90
2018-12-20T18:21:31.466Z,92.00
2018-12-20T18:23:59.423Z,92.30
2018-12-20T18:26:27.523Z,92.30
2018-12-20T18:28:55.229Z,92.20
2018-12-20T18:31:23.259Z,92.30
2018-12-20T18:33:51.836Z,92.20
2018-12-20T18:36:19.656Z,92.30
2018-12-20T18:38:47.420Z,92.30
2018-12-20T18:41:15.882Z,92.50
2018-12-20T18:43:45.534Z,92.50
2018-12-20T18:46:13.207Z,92.50
2018-12-20T18:48:41.344Z,92.60
2018-12-20T18:51:09.996Z,92.50
2018-12-20T18:53:37.768Z,92.10
2018-12-20T18:56:05.693Z,92.20
2018-12-20T18:58:33.493Z,92.40
2018-12-20T19:01:01.632Z,92.30
2018-12-20T19:03:29.745Z,92.50
2018-12-20T19:05:57.794Z,92.40
2018-12-20T19:08:25.659Z,92.60
2018-12-20T19:10:53.751Z,92.80
2018-12-20T19:13:22.212Z,92.90
2018-12-20T19:15:49.943Z,93.00
2018-12-20T19:20:49.870Z,93.40
2018-12-20T19:23:19.785Z,93.40
2018-12-20T19:25:47.500Z,93.40
2018-12-20T19:28:15.237Z,93.40
2018-12-20T19:30:43.109Z,93.40
2018-12-20T19:33:10.906Z,93.30
2018-12-20T19:35:39.344Z,93.30
2018-12-20T19:38:07.210Z,93.30
2018-12-20T19:40:35.075Z,93.40
2018-12-20T19:43:03.021Z,93.50
2018-12-20T19:45:30.861Z,93.60
2018-12-20T19:47:59.337Z,93.50
2018-12-20T19:50:27.378Z,93.50
2018-12-20T19:52:55.206Z,93.50
2018-12-20T19:55:23.554Z,93.50
2018-12-20T19:57:51.354Z,93.40
2018-12-20T20:00:19.867Z,93.40
2018-12-20T20:02:48.166Z,93.20
2018-12-20T20:05:15.918Z,93.00
2018-12-20T20:07:43.681Z,92.40
2018-12-20T20:10:11.544Z,92.40
2018-12-20T20:12:39.357Z,92.30
2018-12-20T20:15:16.357Z,92.40
2018-12-20T20:17:41.189Z,92.40
2018-12-20T20:20:13.766Z,92.30
2018-12-20T20:22:39.276Z,92.30
2018-12-20T20:25:07.910Z,92.00
2018-12-20T20:27:35.672Z,92.00
2018-12-20T20:30:05.346Z,92.00
2018-12-20T20:32:33.917Z,91.90
2018-12-20T20:35:01.766Z,91.80
2018-12-20T20:37:32.002Z,91.70
2018-12-20T20:39:59.779Z,91.50
2018-12-20T20:42:27.878Z,91.40
2018-12-20T20:44:55.705Z,91.40
2018-12-20T20:47:24.047Z,91.30
2018-12-20T20:49:53.414Z,91.10
2018-12-20T20:52:21.575Z,91.30
2018-12-20T20:54:49.362Z,91.10
2018-12-20T20:57:17.906Z,91.40
2018-12-20T20:59:50.809Z,91.70
2018-12-20T21:02:15.646Z,91.80
2018-12-20T21:04:43.764Z,92.00
2018-12-20T21:07:11.750Z,92.00
2018-12-20T21:09:39.445Z,92.10
2018-12-20T21:12:08.100Z,92.30
2018-12-20T21:14:35.863Z,91.90
2018-12-20T21:17:04.679Z,92.00
2018-12-20T21:19:32.404Z,92.10
2018-12-20T21:22:02.191Z,92.40
2018-12-20T21:24:30.211Z,92.10
2018-12-20T21:26:58.494Z,92.20
2018-12-20T21:29:27.060Z,92.20
2018-12-20T21:31:55.238Z,92.10
2018-12-20T21:34:23.068Z,92.00
2018-12-20T21:36:52.676Z,91.70
2018-12-20T21:39:20.628Z,91.70
2018-12-20T21:41:48.379Z,91.70
2018-12-20T21:44:16.194Z,91.70
2018-12-20T21:46:43.949Z,91.60
2018-12-20T21:49:11.779Z,91.70
2018-12-20T21:51:39.598Z,91.50
2018-12-20T21:54:08.142Z,91.70
2018-12-20T21:56:36.299Z,91.70
2018-12-20T21:59:04.351Z,91.60
2018-12-20T22:01:32.140Z,91.70
2018-12-20T22:04:00.078Z,91.70
2018-12-20T22:06:27.881Z,91.70
2018-12-20T22:08:55.711Z,91.50
2018-12-20T22:11:23.430Z,91.70
2018-12-20T22:13:51.310Z,91.70
2018-12-20T22:16:19.174Z,91.90
2018-12-20T22:18:48.029Z,92.00
2018-12-20T22:21:15.901Z,92.40
2018-12-20T22:23:43.810Z,92.50
2018-12-20T22:26:11.686Z,92.60
2018-12-20T22:28:39.443Z,92.60
2018-12-20T22:31:07.583Z,92.70
2018-12-20T22:33:35.659Z,92.70
2018-12-20T22:36:03.806Z,92.70
2018-12-20T22:38:31.679Z,92.90
2018-12-20T22:40:59.393Z,93.00
2018-12-20T22:43:27.558Z,93.00
2018-12-20T22:45:55.358Z,93.00
2018-12-20T22:48:23.054Z,93.00
2018-12-20T22:50:55.942Z,93.00
2018-12-20T22:53:20.473Z,93.00
2018-12-20T22:55:48.206Z,93.00
2018-12-20T22:58:15.932Z,93.00
2018-12-20T23:00:45.863Z,93.00
2018-12-20T23:03:13.577Z,92.70
2018-12-20T23:05:41.457Z,92.60
2018-12-20T23:08:09.309Z,93.00
2018-12-20T23:10:37.183Z,93.60
2018-12-20T23:13:05.175Z,93.80
2018-12-20T23:15:33.004Z,94.00
2018-12-20T23:18:01.685Z,94.40
2018-12-20T23:20:29.611Z,94.90
2018-12-20T23:22:58.140Z,94.90
2018-12-20T23:25:27.492Z,94.80
2018-12-20T23:27:57.154Z,95.10
2018-12-20T23:30:25.215Z,95.30
2018-12-20T23:32:53.769Z,95.40
2018-12-20T23:35:25.507Z,95.40
2018-12-20T23:37:53.295Z,95.40
2018-12-20T23:40:21.099Z,95.40
2018-12-20T23:42:49.060Z,95.40
2018-12-20T23:45:17.748Z,95.30
2018-12-20T23:47:45.466Z,95.20
2018-12-20T23:50:13.536Z,95.10
2018-12-20T23:52:41.555Z,94.90
2018-12-20T23:55:09.481Z,94.90
2018-12-20T23:57:37.258Z,94.60
